Time;durP1;ratioP1;P1;durP2;ratioP2;P2;SDS_P1;SDS_P2;PMS_P1;PMS_P2;Temp;Humidity;BMP_temperature;BMP_pressure;BME280_temperature;BME280_humidity;BME280_pressure;Samples;Min_cycle;Max_cycle;Signal;HPM_P1;HPM_P2
2021/09/05 00:03:52;;;;;;;15.60;7.53;;;;;;;12.13;70.04;100879.78;8601903;34;20184;-71
2021/09/05 00:08:55;;;;;;;13.88;7.47;;;;;;;12.03;70.64;100878.81;8601070;34;20743;-71
2021/09/05 00:13:58;;;;;;;13.93;7.40;;;;;;;12.06;70.09;100879.41;8601837;34;20592;-70
2021/09/05 00:19:02;;;;;;;13.30;7.55;;;;;;;12.00;70.16;100881.75;8601662;34;20491;-70
2021/09/05 00:24:06;;;;;;;13.38;7.45;;;;;;;11.93;70.35;100873.31;8600902;34;20181;-71
2021/09/05 00:29:09;;;;;;;15.43;7.20;;;;;;;11.90;69.96;100876.22;8601185;34;20189;-71
2021/09/05 00:34:13;;;;;;;13.50;7.50;;;;;;;11.70;70.72;100878.63;8605921;34;20189;-71
2021/09/05 00:39:17;;;;;;;14.13;7.90;;;;;;;11.45;72.05;100881.53;8586239;34;20325;-71
2021/09/05 00:44:20;;;;;;;14.00;7.47;;;;;;;11.39;72.27;100880.16;8583540;34;20232;-70
2021/09/05 00:49:25;;;;;;;17.70;8.32;;;;;;;11.47;72.31;100877.75;8583044;34;21682;-71
2021/09/05 00:54:29;;;;;;;16.58;8.35;;;;;;;11.36;72.03;100880.41;8606627;34;20208;-72
2021/09/05 00:59:33;;;;;;;14.90;8.43;;;;;;;11.38;72.62;100881.16;8606495;34;20137;-71
2021/09/05 01:04:40;;;;;;;12.15;7.25;;;;;;;11.36;72.06;100890.31;8606752;34;20193;-72
2021/09/05 01:09:44;;;;;;;12.80;7.50;;;;;;;11.19;72.67;100887.06;8588094;34;20181;-71
2021/09/05 01:14:49;;;;;;;14.05;7.45;;;;;;;11.09;72.36;100887.84;8607419;34;20166;-72
2021/09/05 01:19:53;;;;;;;13.80;7.75;;;;;;;11.07;72.70;100885.25;8606107;34;20573;-71
2021/09/05 01:25:17;;;;;;;16.92;8.52;;;;;;;11.10;73.58;100887.72;8562657;34;20666;-71
2021/09/05 01:30:41;;;;;;;18.25;9.55;;;;;;;11.29;72.59;100889.91;8605218;34;20339;-71
2021/09/05 01:36:03;;;;;;;14.85;9.05;;;;;;;11.34;72.39;100894.94;8604616;34;20184;-70
2021/09/05 01:41:25;;;;;;;19.13;8.80;;;;;;;11.33;72.54;100890.56;8604632;34;20643;-71
2021/09/05 01:46:48;;;;;;;16.27;8.00;;;;;;;11.01;72.01;100885.72;8604964;34;20504;-71
2021/09/05 01:52:29;;;;;;;13.88;7.85;;;;;;;10.71;72.34;100887.03;8376941;34;20180;-71
2021/09/05 01:57:51;;;;;;;17.08;8.77;;;;;;;10.61;73.43;100891.34;8566159;34;20193;-71
2021/09/05 02:03:14;;;;;;;14.52;8.63;;;;;;;10.65;73.71;100889.31;8604947;34;20185;-71
2021/09/05 02:08:50;;;;;;;17.23;7.97;;;;;;;10.71;73.11;100888.88;8580080;34;20200;-71
2021/09/05 02:14:13;;;;;;;16.05;8.30;;;;;;;10.61;73.17;100892.25;8603746;34;20537;-71
2021/09/05 02:19:40;;;;;;;18.08;8.15;;;;;;;10.49;73.04;100887.75;8541105;34;20189;-71
2021/09/05 02:25:07;;;;;;;16.15;8.48;;;;;;;10.47;73.58;100888.81;8599790;34;20197;-71
2021/09/05 02:30:31;;;;;;;15.25;8.05;;;;;;;10.55;73.76;100895.34;8603021;34;20437;-71
2021/09/05 02:35:51;;;;;;;16.92;8.70;;;;;;;10.52;73.14;100900.09;8581069;34;20652;-71
2021/09/05 02:41:14;;;;;;;13.13;8.23;;;;;;;10.55;72.55;100891.81;8601566;34;20184;-71
2021/09/05 02:46:41;;;;;;;15.85;7.85;;;;;;;10.52;72.51;100887.53;8578812;34;20251;-71
2021/09/05 02:52:03;;;;;;;20.10;8.93;;;;;;;10.43;72.92;100887.34;8579040;34;20177;-70
2021/09/05 02:57:32;;;;;;;16.80;8.40;;;;;;;10.30;73.61;100896.28;8602151;34;20912;-71
2021/09/05 03:02:57;;;;;;;13.10;8.60;;;;;;;10.23;73.93;100889.66;8604962;34;20158;-71
2021/09/05 03:08:20;;;;;;;14.43;8.45;;;;;;;10.26;73.73;100888.56;8607376;34;20496;-71
2021/09/05 03:13:45;;;;;;;22.35;8.82;;;;;;;10.12;73.36;100887.72;8578975;34;20447;-71
2021/09/05 03:19:08;;;;;;;14.43;8.05;;;;;;;10.08;73.42;100899.63;8602125;34;21495;-70
2021/09/05 03:24:35;;;;;;;18.23;8.25;;;;;;;10.02;73.94;100899.22;8601184;34;20138;-72
2021/09/05 03:29:58;;;;;;;18.67;9.18;;;;;;;10.00;74.82;100896.63;8545936;34;20599;-72
2021/09/05 03:35:19;;;;;;;18.55;8.60;;;;;;;9.81;74.68;100898.84;8577074;34;20244;-71
2021/09/05 03:40:55;;;;;;;15.55;8.70;;;;;;;9.72;75.10;100898.53;8601801;34;20476;-71
2021/09/05 03:46:17;;;;;;;13.10;7.43;;;;;;;9.70;74.98;100900.44;8601418;34;20185;-72
2021/09/05 03:51:45;;;;;;;15.43;7.97;;;;;;;9.68;75.16;100902.41;8601269;34;20338;-71
2021/09/05 03:56:53;;;;;;;16.55;9.23;;;;;;;9.70;75.17;100907.66;8581036;34;20335;-71
2021/09/05 04:01:57;;;;;;;15.55;8.82;;;;;;;9.60;75.08;100902.06;8584769;34;20186;-71
2021/09/05 04:07:03;;;;;;;14.75;7.88;;;;;;;9.48;75.31;100893.03;8583768;34;20192;-71
2021/09/05 04:12:12;;;;;;;16.23;7.63;;;;;;;9.44;75.06;100904.09;8585198;34;20302;-71
2021/09/05 04:17:15;;;;;;;16.98;8.38;;;;;;;9.33;75.49;100896.78;8608443;34;20173;-71
2021/09/05 04:22:18;;;;;;;18.85;9.68;;;;;;;9.24;76.26;100902.72;8608846;34;20457;-71
2021/09/05 04:27:23;;;;;;;16.85;8.52;;;;;;;9.33;75.89;100904.81;8607329;34;20213;-72
2021/09/05 04:32:26;;;;;;;17.55;8.73;;;;;;;9.43;75.52;100911.25;8608653;34;20343;-71
2021/09/05 04:37:29;;;;;;;17.77;8.45;;;;;;;9.41;75.28;100915.03;8608284;34;20253;-70
2021/09/05 04:42:36;;;;;;;14.93;8.85;;;;;;;9.40;75.75;100926.69;8604320;34;20181;-71
2021/09/05 04:47:39;;;;;;;18.23;8.90;;;;;;;9.45;75.97;100921.88;8600378;34;20903;-71
2021/09/05 04:52:42;;;;;;;17.83;7.95;;;;;;;9.40;76.33;100935.59;8600362;34;20650;-71
2021/09/05 04:57:46;;;;;;;15.50;8.55;;;;;;;9.40;76.14;100937.41;8600245;34;20732;-71
2021/09/05 05:02:49;;;;;;;13.32;7.75;;;;;;;9.34;76.12;100941.38;8600583;34;20233;-70
2021/09/05 05:07:54;;;;;;;13.88;8.05;;;;;;;9.28;76.10;100949.84;8599426;34;20867;-71
2021/09/05 05:12:59;;;;;;;12.77;7.43;;;;;;;9.35;76.10;100950.28;8604743;34;20145;-71
2021/09/05 05:18:02;;;;;;;16.80;8.10;;;;;;;9.31;75.92;100959.50;8601003;34;20185;-70
2021/09/05 05:23:05;;;;;;;16.58;8.30;;;;;;;9.41;75.77;100956.09;8604814;34;20199;-71
2021/09/05 05:28:09;;;;;;;15.93;8.35;;;;;;;9.51;74.90;100967.06;8605625;34;20205;-71
2021/09/05 05:33:12;;;;;;;14.90;7.95;;;;;;;9.54;74.73;100974.88;8605466;34;20478;-70
2021/09/05 05:38:15;;;;;;;12.88;7.18;;;;;;;9.76;74.31;100965.38;8604778;34;20184;-71
2021/09/05 05:43:20;;;;;;;15.48;8.07;;;;;;;9.88;74.47;100975.34;8580963;34;20171;-71
2021/09/05 05:48:23;;;;;;;14.43;7.88;;;;;;;10.06;74.17;100975.88;8604890;34;20208;-72
2021/09/05 05:53:26;;;;;;;14.52;7.75;;;;;;;10.26;74.25;100974.50;8604872;34;20182;-70
2021/09/05 05:58:31;;;;;;;16.80;8.40;;;;;;;10.56;73.71;100972.31;8604186;34;20315;-71
2021/09/05 06:03:43;;;;;;;16.63;8.55;;;;;;;10.87;73.43;100974.59;8604488;34;20161;-72
2021/09/05 06:08:46;;;;;;;14.38;7.88;;;;;;;11.17;72.70;100977.75;8604565;34;20221;-71
2021/09/05 06:13:51;;;;;;;17.15;9.05;;;;;;;11.33;72.18;100976.63;8604017;34;20185;-71
2021/09/05 06:18:54;;;;;;;10.07;6.35;;;;;;;11.75;72.56;100979.72;8603764;34;20193;-72
2021/09/05 06:23:57;;;;;;;9.90;5.95;;;;;;;12.35;70.43;100989.41;8603867;34;20177;-72
2021/09/05 06:29:01;;;;;;;13.40;7.20;;;;;;;12.47;69.21;100990.28;8603215;34;20208;-72
2021/09/05 06:34:05;;;;;;;13.02;7.35;;;;;;;12.60;68.20;100999.09;8603265;34;20311;-72
2021/09/05 06:39:08;;;;;;;14.27;7.28;;;;;;;12.83;67.89;100986.44;8602602;34;20232;-72
2021/09/05 06:44:12;;;;;;;9.10;6.03;;;;;;;13.05;67.97;100991.84;8600959;34;20221;-72
2021/09/05 06:49:15;;;;;;;17.27;7.78;;;;;;;13.10;66.74;100990.59;8577809;34;20762;-72
2021/09/05 06:54:18;;;;;;;16.73;7.65;;;;;;;13.22;66.49;100986.88;8602295;34;20862;-72
2021/09/05 06:59:23;;;;;;;17.77;9.27;;;;;;;13.46;66.31;101001.03;8600753;34;21030;-71
2021/09/05 07:04:26;;;;;;;14.85;8.20;;;;;;;13.90;65.79;100990.16;8601991;34;20763;-72
2021/09/05 07:09:29;;;;;;;16.92;8.10;;;;;;;14.27;64.79;100995.13;8603042;34;20216;-72
2021/09/05 07:14:33;;;;;;;15.65;8.57;;;;;;;14.49;64.20;100992.25;8601027;34;20205;-72
2021/09/05 07:19:36;;;;;;;14.52;7.20;;;;;;;14.79;63.82;100991.38;8601280;34;20523;-72
2021/09/05 07:24:39;;;;;;;13.52;7.95;;;;;;;15.23;63.25;100997.34;8600721;34;20513;-72
2021/09/05 07:29:44;;;;;;;14.60;7.82;;;;;;;15.58;62.45;101004.13;8601888;34;20129;-72
2021/09/05 07:34:46;;;;;;;16.00;7.93;;;;;;;15.88;61.67;101005.81;8600668;34;20670;-72
2021/09/05 07:39:49;;;;;;;15.30;8.02;;;;;;;16.26;60.86;101009.47;8601141;33;20258;-72
2021/09/05 07:44:54;;;;;;;13.35;8.48;;;;;;;16.56;60.53;101007.53;8600496;34;20152;-72
2021/09/05 07:49:57;;;;;;;15.95;8.48;;;;;;;16.90;59.11;101012.41;8600471;34;20193;-71
2021/09/05 07:55:00;;;;;;;13.60;8.20;;;;;;;17.04;58.76;101010.03;8599550;34;20177;-72
2021/09/05 08:00:06;;;;;;;14.30;7.90;;;;;;;17.41;58.87;101008.25;8599565;34;20395;-72
2021/09/05 08:05:14;;;;;;;12.00;7.80;;;;;;;17.82;57.38;101020.34;8598747;34;20244;-72
2021/09/05 08:10:17;;;;;;;12.57;8.50;;;;;;;17.85;56.30;101017.34;8600732;34;20684;-72
2021/09/05 08:15:21;;;;;;;14.82;7.95;;;;;;;18.02;55.79;101023.81;8601216;34;20184;-71
2021/09/05 08:20:24;;;;;;;15.20;8.55;;;;;;;18.35;55.47;101024.91;8602107;34;20243;-70
2021/09/05 08:25:27;;;;;;;14.35;8.55;;;;;;;18.64;54.22;101025.56;8600751;34;20180;-71
2021/09/05 08:30:32;;;;;;;15.55;8.57;;;;;;;19.02;54.42;101030.53;8601249;34;20200;-72
2021/09/05 08:35:35;;;;;;;17.38;9.88;;;;;;;19.06;53.08;101036.53;8603189;34;20274;-72
2021/09/05 08:40:41;;;;;;;13.45;8.50;;;;;;;19.38;51.95;101034.91;8601387;34;20177;-71
2021/09/05 08:45:45;;;;;;;15.82;8.50;;;;;;;19.61;51.72;101041.47;8600911;34;20452;-71
2021/09/05 08:50:51;;;;;;;17.25;8.88;;;;;;;19.65;51.22;101052.88;8602911;34;20177;-71
2021/09/05 08:55:54;;;;;;;12.60;8.85;;;;;;;19.55;51.05;101046.69;8606221;34;20733;-71
2021/09/05 09:00:59;;;;;;;16.25;9.05;;;;;;;19.61;50.10;101043.31;8606304;34;20219;-71
2021/09/05 09:06:02;;;;;;;14.07;8.77;;;;;;;19.78;51.41;101052.41;8606075;34;20146;-71
2021/09/05 09:11:06;;;;;;;14.70;8.43;;;;;;;20.42;50.29;101047.97;8606423;34;20272;-72
2021/09/05 09:16:13;;;;;;;15.30;8.57;;;;;;;20.83;48.40;101052.47;8604836;34;20177;-72
2021/09/05 09:21:19;;;;;;;15.73;9.10;;;;;;;21.17;47.47;101044.00;8605994;34;20204;-71
2021/09/05 09:26:23;;;;;;;14.70;7.95;;;;;;;20.99;47.67;101052.41;8605918;34;20545;-71
2021/09/05 09:31:29;;;;;;;15.07;8.00;;;;;;;21.29;47.87;101053.50;8603336;34;20238;-72
2021/09/05 09:36:32;;;;;;;12.65;8.43;;;;;;;21.68;46.07;101055.31;8603597;34;20188;-72
2021/09/05 09:41:37;;;;;;;12.88;8.30;;;;;;;21.80;45.45;101045.72;8579146;34;20272;-72
2021/09/05 09:46:44;;;;;;;12.35;8.18;;;;;;;21.93;45.28;101045.09;8606292;34;20193;-72
2021/09/05 09:51:47;;;;;;;13.68;7.78;;;;;;;22.44;45.88;101033.56;8608007;34;21335;-69
2021/09/05 09:56:53;;;;;;;13.20;8.00;;;;;;;22.23;43.71;101043.28;8603493;34;20795;-71
2021/09/05 10:01:58;;;;;;;13.90;9.07;;;;;;;22.14;45.06;101044.41;8603438;34;20582;-71
2021/09/05 10:07:02;;;;;;;13.43;7.95;;;;;;;22.60;43.66;101033.38;8603705;34;20481;-71
2021/09/05 10:12:06;;;;;;;11.63;7.60;;;;;;;22.64;43.82;101034.69;8603340;34;20185;-71
2021/09/05 10:17:12;;;;;;;11.73;8.02;;;;;;;23.32;42.64;101032.66;8602611;34;20158;-71
2021/09/05 10:22:19;;;;;;;11.38;6.82;;;;;;;23.42;41.90;101029.59;8602754;34;20216;-71
2021/09/05 10:27:30;;;;;;;10.15;6.97;;;;;;;24.16;40.60;101029.31;8601735;34;20586;-71
2021/09/05 10:32:45;;;;;;;10.05;6.47;;;;;;;23.76;40.14;101028.97;8603742;34;20242;-71
2021/09/05 10:37:48;;;;;;;11.00;6.80;;;;;;;24.19;41.46;101028.06;8601617;34;20215;-71
2021/09/05 10:42:56;;;;;;;13.10;7.20;;;;;;;24.81;38.19;101030.00;8601471;34;20161;-71
2021/09/05 10:48:01;;;;;;;11.25;6.32;;;;;;;24.43;40.04;101024.91;8601600;34;20185;-71
2021/09/05 10:53:18;;;;;;;10.50;6.30;;;;;;;25.04;38.84;101020.63;8601737;34;20304;-71
2021/09/05 10:58:21;;;;;;;11.95;6.25;;;;;;;25.23;39.28;101014.34;8601289;34;20639;-71
2021/09/05 11:03:25;;;;;;;13.18;7.47;;;;;;;25.60;37.89;101012.13;8601259;34;20177;-71
2021/09/05 11:08:28;;;;;;;9.43;6.78;;;;;;;25.71;37.93;101013.47;8601311;34;20181;-71
2021/09/05 11:13:56;;;;;;;9.52;6.13;;;;;;;25.85;37.99;101009.66;8601712;34;20275;-71
2021/09/05 11:19:01;;;;;;;9.52;7.30;;;;;;;26.02;36.12;101010.09;8569211;34;20729;-71
2021/09/05 11:24:05;;;;;;;9.00;6.63;;;;;;;26.46;36.67;101014.09;8601089;34;20280;-72
2021/09/05 11:29:24;;;;;;;9.95;6.93;;;;;;;27.48;34.27;101012.50;8601442;34;20203;-71
2021/09/05 11:34:30;;;;;;;10.18;6.95;;;;;;;28.20;33.04;101009.44;8601164;34;20668;-72
2021/09/05 11:39:33;;;;;;;9.80;6.07;;;;;;;28.75;32.75;101003.16;8601968;34;21738;-71
2021/09/05 11:44:39;;;;;;;10.50;6.78;;;;;;;29.07;31.81;101009.38;8601813;34;20181;-72
2021/09/05 11:49:51;;;;;;;11.80;6.72;;;;;;;29.58;31.73;101005.28;8602289;34;20160;-72
2021/09/05 11:55:01;;;;;;;9.77;6.57;;;;;;;29.50;32.32;101008.38;8602042;34;21468;-72
2021/09/05 12:00:08;;;;;;;9.68;6.60;;;;;;;29.48;29.98;101013.28;8601975;34;21555;-72
2021/09/05 12:05:22;;;;;;;9.20;6.10;;;;;;;28.94;31.71;101005.69;8600698;34;21144;-72
2021/09/05 12:10:28;;;;;;;8.48;6.20;;;;;;;29.28;31.00;100997.81;8601804;34;20137;-72
2021/09/05 12:15:35;;;;;;;9.82;6.15;;;;;;;29.96;30.60;101007.66;8601258;34;20228;-72
2021/09/05 12:20:43;;;;;;;8.52;6.28;;;;;;;29.72;30.37;101004.00;8602198;34;20414;-72
2021/09/05 12:25:47;;;;;;;8.57;5.93;;;;;;;30.45;29.65;100999.16;8600901;34;20793;-72
2021/09/05 12:30:55;;;;;;;9.85;6.53;;;;;;;30.19;28.79;100998.56;8605794;34;20153;-72
2021/09/05 12:36:14;;;;;;;9.10;5.78;;;;;;;29.62;29.21;101011.19;8606637;34;20185;-72
2021/09/05 12:41:18;;;;;;;9.13;6.28;;;;;;;29.95;28.68;100999.59;8606025;34;21370;-72
2021/09/05 12:46:25;;;;;;;8.70;6.35;;;;;;;28.93;30.13;101000.38;8606797;34;20769;-71
2021/09/05 12:51:30;;;;;;;8.80;6.20;;;;;;;28.48;30.01;100993.22;8607765;34;20224;-71
2021/09/05 12:56:36;;;;;;;8.77;6.22;;;;;;;28.57;31.34;100984.66;8606316;34;20259;-71
2021/09/05 13:01:40;;;;;;;8.90;5.47;;;;;;;28.97;30.59;100990.56;8605825;34;20288;-72
2021/09/05 13:06:46;;;;;;;9.30;6.07;;;;;;;29.82;29.89;100995.13;8605739;34;21489;-70
2021/09/05 13:11:51;;;;;;;9.40;6.78;;;;;;;30.28;30.44;100990.75;8606954;34;20185;-71
2021/09/05 13:16:54;;;;;;;12.13;7.32;;;;;;;31.89;28.41;100978.75;8606038;34;20702;-71
2021/09/05 13:21:59;;;;;;;10.52;6.90;;;;;;;31.98;28.10;100980.03;8604843;34;20185;-70
2021/09/05 13:27:05;;;;;;;12.55;6.65;;;;;;;31.88;28.16;100979.03;8604418;34;20189;-70
2021/09/05 13:32:18;;;;;;;11.27;7.00;;;;;;;32.41;27.36;100975.69;8580062;34;20452;-71
2021/09/05 13:37:24;;;;;;;9.48;6.53;;;;;;;32.09;28.24;100972.72;8602775;34;20564;-72
2021/09/05 13:42:28;;;;;;;11.88;6.95;;;;;;;31.04;29.13;100966.63;8604420;34;20741;-71
2021/09/05 13:47:32;;;;;;;9.07;7.00;;;;;;;29.95;30.87;100980.19;8606778;34;20185;-71
2021/09/05 13:52:38;;;;;;;10.75;7.10;;;;;;;29.18;31.72;100967.09;8604992;34;20670;-71
2021/09/05 13:57:43;;;;;;;11.10;7.07;;;;;;;28.69;31.16;100971.78;8604794;34;20185;-71
2021/09/05 14:02:46;;;;;;;9.60;6.72;;;;;;;29.49;31.42;100965.19;8606979;34;21434;-71
2021/09/05 14:07:52;;;;;;;11.23;7.00;;;;;;;30.02;30.55;100962.41;8606182;34;20200;-71
2021/09/05 14:12:56;;;;;;;11.80;7.03;;;;;;;30.02;30.47;100958.78;8603690;34;20678;-72
2021/09/05 14:18:01;;;;;;;10.73;7.03;;;;;;;29.73;29.79;100955.00;8602069;34;20192;-72
2021/09/05 14:23:06;;;;;;;11.48;6.70;;;;;;;29.34;30.88;100952.59;8601922;34;20682;-71
2021/09/05 14:28:12;;;;;;;8.95;6.85;;;;;;;29.21;31.98;100949.19;8578481;34;21638;-72
2021/09/05 14:33:40;;;;;;;11.77;7.75;;;;;;;29.32;31.72;100948.41;8601913;34;20189;-71
2021/09/05 14:49:36;;;;;;;9.50;6.95;;;;;;;28.93;31.77;100945.06;8545640;34;22669;-71
2021/09/05 14:54:56;;;;;;;10.80;7.43;;;;;;;29.05;32.39;100945.16;8545376;34;20559;-71
2021/09/05 15:00:01;;;;;;;10.93;7.10;;;;;;;29.15;31.74;100946.31;8545412;34;20273;-71
2021/09/05 15:05:32;;;;;;;10.15;6.63;;;;;;;29.30;31.96;100945.03;8545312;34;20165;-71
2021/09/05 15:15:57;;;;;;;11.63;7.03;;;;;;;28.97;32.32;100945.47;8545383;34;20181;-71
2021/09/05 15:21:04;;;;;;;11.10;7.75;;;;;;;28.98;31.95;100941.63;8544942;34;20368;-71
2021/09/05 15:26:14;;;;;;;11.07;7.35;;;;;;;28.85;32.47;100929.69;8544591;34;20564;-71
2021/09/05 15:31:24;;;;;;;11.57;7.63;;;;;;;28.62;33.13;100940.59;8544614;34;20284;-71
2021/09/05 15:36:39;;;;;;;13.57;7.65;;;;;;;28.35;33.54;100938.09;8543895;34;20190;-71
2021/09/05 15:52:34;;;;;;;9.13;6.80;;;;;;;29.89;31.17;100939.63;8545784;34;20263;-72
2021/09/05 15:57:41;;;;;;;11.45;8.10;;;;;;;29.87;31.74;100939.88;8544990;34;20200;-71
2021/09/05 16:02:53;;;;;;;9.88;7.13;;;;;;;29.21;32.00;100930.69;8543412;34;20224;-70
2021/09/05 16:18:46;;;;;;;9.95;7.25;;;;;;;27.06;35.89;100940.34;8543825;34;20249;-73
2021/09/05 16:23:49;;;;;;;8.57;7.20;;;;;;;26.81;36.84;100948.50;8543398;34;20391;-73
2021/09/05 16:28:59;;;;;;;12.20;8.32;;;;;;;26.48;37.89;100940.38;8543420;34;20213;-72
2021/09/05 16:34:08;;;;;;;13.88;7.63;;;;;;;26.01;38.38;100953.34;8542347;34;20207;-72
2021/09/05 16:44:34;;;;;;;12.60;8.30;;;;;;;25.51;39.29;100958.38;8543022;34;20276;-73
2021/09/05 16:49:37;;;;;;;13.52;8.18;;;;;;;25.02;40.65;100963.09;8542485;34;20146;-73
2021/09/05 16:54:41;;;;;;;11.55;8.20;;;;;;;24.61;41.48;100955.72;8542035;34;20312;-72
2021/09/05 16:59:46;;;;;;;12.60;8.13;;;;;;;24.39;42.11;100965.94;8542083;34;20655;-73
2021/09/05 17:04:49;;;;;;;11.27;8.27;;;;;;;23.96;42.57;100970.69;8541918;34;20738;-72
2021/09/05 17:09:52;;;;;;;14.98;8.77;;;;;;;23.51;43.66;100968.16;8542602;34;20249;-72
2021/09/05 17:14:57;;;;;;;12.00;8.57;;;;;;;22.99;45.14;100967.31;8545744;34;20208;-72
2021/09/05 17:20:01;;;;;;;12.55;8.25;;;;;;;22.49;46.04;100971.72;8546553;34;20818;-72
2021/09/05 17:25:06;;;;;;;13.23;8.00;;;;;;;22.11;46.71;100984.59;8592311;34;20216;-73
2021/09/05 17:30:13;;;;;;;13.40;9.15;;;;;;;21.70;47.97;100989.53;8603555;34;20228;-73
2021/09/05 17:35:17;;;;;;;12.52;7.85;;;;;;;21.29;48.97;100987.09;8602622;34;20425;-73
2021/09/05 17:40:21;;;;;;;12.73;8.73;;;;;;;20.84;50.37;100994.94;8602760;34;20185;-72
2021/09/05 17:45:25;;;;;;;13.48;8.80;;;;;;;20.39;51.29;100996.47;8602274;34;20670;-73
2021/09/05 17:50:30;;;;;;;15.15;8.77;;;;;;;20.04;52.59;100993.09;8602414;34;20619;-72
2021/09/05 17:55:33;;;;;;;11.43;8.10;;;;;;;19.81;53.34;101001.13;8605208;34;20204;-72
2021/09/05 18:00:38;;;;;;;12.77;8.05;;;;;;;19.55;54.25;100994.91;8605782;34;20186;-73
2021/09/05 18:05:42;;;;;;;14.60;9.38;;;;;;;19.37;54.91;101005.97;8605771;34;20189;-72
2021/09/05 18:10:47;;;;;;;13.57;9.13;;;;;;;19.19;55.47;101009.66;8605151;34;20275;-73
2021/09/05 18:15:51;;;;;;;13.15;8.60;;;;;;;19.08;56.33;101004.53;8584516;34;20189;-73
2021/09/05 18:20:56;;;;;;;14.85;8.52;;;;;;;18.83;57.46;101019.06;8580106;34;21502;-72
2021/09/05 18:25:59;;;;;;;14.02;9.70;;;;;;;18.67;57.94;101026.09;8602790;34;20188;-73
2021/09/05 18:31:05;;;;;;;17.10;9.18;;;;;;;18.52;58.48;101030.44;8603413;34;20270;-72
2021/09/05 18:36:09;;;;;;;17.65;9.27;;;;;;;18.41;58.73;101038.88;8578309;34;20867;-72
2021/09/05 18:41:12;;;;;;;16.75;9.35;;;;;;;18.24;58.99;101046.91;8601671;34;20535;-71
2021/09/05 18:46:17;;;;;;;16.30;9.77;;;;;;;18.10;60.02;101053.78;8601614;34;20185;-72
2021/09/05 18:51:24;;;;;;;15.43;9.57;;;;;;;17.94;60.63;101053.59;8601898;34;20193;-72
2021/09/05 18:56:28;;;;;;;14.98;9.25;;;;;;;17.89;60.58;101050.50;8602353;34;20490;-72
2021/09/05 19:01:33;;;;;;;14.38;9.48;;;;;;;17.66;61.53;101064.56;8602517;34;20189;-72
2021/09/05 19:06:38;;;;;;;15.10;8.73;;;;;;;17.51;62.30;101063.34;8601460;34;20231;-72
2021/09/05 19:11:42;;;;;;;16.60;9.63;;;;;;;17.34;62.92;101070.47;8601177;34;20189;-72
2021/09/05 19:16:48;;;;;;;14.60;9.25;;;;;;;17.20;63.39;101074.56;8601037;34;20248;-72
2021/09/05 19:21:54;;;;;;;13.05;8.95;;;;;;;17.04;63.82;101077.03;8601727;34;20220;-72
2021/09/05 19:26:57;;;;;;;15.82;9.68;;;;;;;16.94;63.87;101068.06;8601560;34;20187;-71
2021/09/05 19:32:02;;;;;;;13.57;9.57;;;;;;;16.93;64.00;101080.78;8601550;34;20150;-72
2021/09/05 19:37:07;;;;;;;16.98;9.88;;;;;;;16.87;64.31;101075.97;8600027;34;20180;-72
2021/09/05 19:42:12;;;;;;;16.05;11.18;;;;;;;16.87;64.12;101078.69;8600645;34;20267;-72
2021/09/05 19:47:16;;;;;;;16.10;10.07;;;;;;;16.71;64.44;101081.16;8601635;34;20185;-72
2021/09/05 19:52:19;;;;;;;16.98;9.93;;;;;;;16.68;64.52;101089.59;8600941;34;20181;-71
2021/09/05 19:57:24;;;;;;;15.60;9.77;;;;;;;16.44;65.22;101092.78;8599447;34;20276;-72
2021/09/05 20:02:29;;;;;;;18.13;9.52;;;;;;;16.18;66.46;101101.50;8601464;34;20193;-72
2021/09/05 20:07:35;;;;;;;17.50;10.50;;;;;;;16.21;66.00;101098.50;8602474;34;20189;-71
2021/09/05 20:12:39;;;;;;;16.20;9.18;;;;;;;16.10;66.23;101104.91;8591838;33;20241;-71
2021/09/05 20:17:45;;;;;;;14.75;9.45;;;;;;;16.01;66.22;101111.19;8599476;34;20176;-72
2021/09/05 20:22:48;;;;;;;21.40;12.23;;;;;;;15.75;67.44;101097.34;8598790;34;20575;-71
2021/09/05 20:27:51;;;;;;;16.67;10.20;;;;;;;15.66;67.71;101100.88;8599676;34;20193;-72
2021/09/05 20:32:55;;;;;;;14.75;9.15;;;;;;;15.70;67.47;101105.88;8599639;34;20189;-71
2021/09/05 20:37:58;;;;;;;14.07;9.75;;;;;;;15.67;67.54;101106.16;8599522;34;20138;-71
2021/09/05 20:43:01;;;;;;;15.57;9.85;;;;;;;15.62;67.48;101105.72;8600096;34;21034;-72
2021/09/05 20:48:06;;;;;;;14.98;9.50;;;;;;;15.46;67.89;101113.53;8601650;34;20145;-71
2021/09/05 20:53:11;;;;;;;17.35;10.95;;;;;;;15.25;68.41;101113.59;8604790;34;21152;-71
2021/09/05 20:58:14;;;;;;;17.08;10.38;;;;;;;15.08;68.94;101104.25;8604050;34;20252;-71
2021/09/05 21:03:20;;;;;;;15.23;10.23;;;;;;;15.07;68.88;101109.81;8604539;34;20149;-71
2021/09/05 21:08:23;;;;;;;16.88;11.13;;;;;;;14.95;69.51;101112.63;8603924;34;20351;-71
2021/09/05 21:13:26;;;;;;;19.17;10.38;;;;;;;14.82;69.80;101115.53;8579220;34;20154;-72
2021/09/05 21:18:31;;;;;;;17.48;10.85;;;;;;;14.78;70.30;101118.63;8603298;34;20185;-72
2021/09/05 21:23:34;;;;;;;19.65;11.35;;;;;;;14.71;70.77;101114.75;8603598;34;20196;-72
2021/09/05 21:28:37;;;;;;;19.08;11.43;;;;;;;14.65;70.58;101113.44;8602910;34;20535;-72
2021/09/05 21:33:42;;;;;;;15.32;9.55;;;;;;;14.59;70.54;101111.28;8603056;34;21074;-72
2021/09/05 21:38:46;;;;;;;15.82;9.50;;;;;;;14.55;70.71;101115.22;8606272;34;20181;-72
2021/09/05 21:43:49;;;;;;;16.65;10.05;;;;;;;14.50;70.91;101117.47;8606246;34;20171;-72
2021/09/05 21:48:53;;;;;;;16.27;10.68;;;;;;;14.53;70.71;101111.78;8605968;34;20280;-72
2021/09/05 21:53:56;;;;;;;15.48;10.20;;;;;;;14.42;70.67;101109.16;8605753;34;20665;-72
2021/09/05 21:58:59;;;;;;;17.17;10.13;;;;;;;14.31;71.84;101110.91;8605863;34;20446;-72
2021/09/05 22:04:04;;;;;;;18.73;10.80;;;;;;;14.36;71.07;101111.38;8582763;34;20544;-72
2021/09/05 22:09:07;;;;;;;18.25;10.38;;;;;;;14.32;70.63;101111.78;8606895;34;20189;-72
2021/09/05 22:14:10;;;;;;;17.48;10.48;;;;;;;14.18;70.74;101110.25;8605985;34;20695;-72
2021/09/05 22:19:15;;;;;;;17.02;10.82;;;;;;;14.10;70.76;101121.69;8605814;34;20540;-72
2021/09/05 22:24:18;;;;;;;15.25;9.88;;;;;;;13.99;71.52;101115.47;8605085;34;20193;-72
2021/09/05 22:29:21;;;;;;;19.85;11.10;;;;;;;13.85;72.26;101108.53;8606830;34;20246;-72
2021/09/05 22:34:25;;;;;;;17.35;10.25;;;;;;;13.85;71.85;101119.31;8600783;34;20224;-72
2021/09/05 22:39:29;;;;;;;16.95;10.07;;;;;;;13.77;71.76;101130.78;8601016;34;20513;-72
2021/09/05 22:44:32;;;;;;;16.17;10.90;;;;;;;13.70;72.47;101124.16;8600759;34;20272;-72
2021/09/05 22:49:37;;;;;;;18.52;11.23;;;;;;;13.63;72.29;101129.22;8601419;34;20169;-71
2021/09/05 22:54:40;;;;;;;17.15;10.38;;;;;;;13.59;72.02;101133.16;8600414;34;20188;-72
2021/09/05 22:59:44;;;;;;;18.80;11.60;;;;;;;13.38;73.16;101133.03;8600842;34;20244;-72
2021/09/05 23:04:48;;;;;;;18.88;11.90;;;;;;;13.25;73.97;101129.63;8600710;34;20482;-72
2021/09/05 23:09:51;;;;;;;17.88;10.80;;;;;;;13.22;74.02;101132.56;8600142;34;20173;-72
2021/09/05 23:14:54;;;;;;;19.40;10.60;;;;;;;13.17;73.35;101122.13;8600857;34;20185;-72
2021/09/05 23:19:59;;;;;;;20.80;11.65;;;;;;;13.19;73.58;101132.78;8601425;34;20551;-71
2021/09/05 23:25:02;;;;;;;22.42;12.27;;;;;;;13.15;73.59;101137.59;8599686;34;20285;-72
2021/09/05 23:30:07;;;;;;;18.75;11.20;;;;;;;13.14;72.93;101135.88;8600190;34;21585;-72
2021/09/05 23:35:13;;;;;;;21.13;11.77;;;;;;;13.17;72.86;101134.78;8599552;34;20466;-71
2021/09/05 23:40:16;;;;;;;20.95;12.02;;;;;;;13.13;72.91;101136.00;8599772;34;20895;-71
2021/09/05 23:45:19;;;;;;;18.95;11.65;;;;;;;12.98;73.19;101130.00;8600199;34;20720;-72
2021/09/05 23:50:24;;;;;;;18.98;11.80;;;;;;;12.87;73.97;101132.69;8599404;34;20508;-71
2021/09/05 23:55:27;;;;;;;17.88;11.27;;;;;;;12.81;73.53;101129.47;8598406;34;20181;-72
